Soaring Guidance
Issued by NWS Reno, NV

Home | Current Version | Previous Version | Text Only | Print | Product List | Glossary On
Versions: 1 2 3 4 5 6 7
000
UXUS97 KREV 251446
SRGREV

SOARING FORECAST
NATIONAL WEATHER SERVICE - RENO NV
700 AM PST SAT FEB 25 2017

THIS SOARING FORECAST IS FOR THE EASTERN SIERRA AND WESTERN NEVADA
WITH SPECIFIC INDICES FOR THE GREATER RENO AREA.

THIS FORECAST IS PREPARED DAILY BY 700 AM AND IS NOT UPDATED.

FOR CURRENT FLIGHT CONDITIONS...FORECASTS...AND ADVISORIES...ACCESS
YOUR LOCAL BRIEFING OUTLET OR FLIGHT SERVICE STATION.

*******************************************************************
FORECASTED LOCAL INDICES FOR RENO:        TODAY     YESTERDAY
FORECASTED MAX TEMP AT RENO (DEG F).....     38          40
FORECASTED TRIGGER TEMPERATURE (DEG F)..     30          28
   EXCEEDED YESTERDAY BY 1055 AM PST
FORECASTED MAXIMUM ALTITUDE (FT MSL)....  13500       15000
FORECASTED SOARING INDEX (FPM)..........    735         840
FORECASTED K-INDEX.........VALID 18Z....     18          12
FORECASTED K-INDEX.........VALID 00Z....     17          17
FORECASTED LIFTED INDEX....VALID 18Z....      2           5
FORECASTED LIFTED INDEX....VALID 00Z....      1           4

AFTERNOON WINDS ALOFT FORECAST
MSL (FT) WIND/TEMP
9000  9900/-11
10000 9904/-13
12000 2411/-18
14000 2515/-22
16000 2621/-26
18000 2837/-31
24000 2839/-39
30000 2930/-46
34000 2834/-49
39000 2836/-51

SLIDE MOUNTAIN DATA:
     DATE       TIME     TEMP  DEWPT   RH         WIND (MPH)
                        (F)   (F)           | DIR  SPEED GUST
2017-02-25    05:50       9     8     90    | 339    0    0
2017-02-25    05:30       9     8     90    | 339    0    0
2017-02-25    05:20       9     8     90    | 339    0    0
2017-02-25    05:00       9     8     90    | 339    0    0

RENO TAF FORECAST:
KRNO 251423Z 2514/2612 VRB03KT P6SM VCSH SCT030 OVC050
      TEMPO 2514/2516 3SM -SHSN OVC025
     FM260500 VRB03KT P6SM SCT050

CARSON CITY TAF FORECAST:
KCXP 251140Z 2512/2612 VRB03KT P6SM VCSH BKN030 OVC050
     FM252000 10007KT P6SM VCSH SCT035 OVC050
     FM260500 VRB03KT P6SM SCT050

OUTLOOK FOR THE RENO-CARSON CITY-MINDEN AREA:
.SUNDAY...MOSTLY CLOUDY. SLIGHT CHANCE OF SNOW SHOWERS IN THE
AFTERNOON. HIGHS 38 TO 43. SOUTHWEST WINDS UP TO 10 MPH
INCREASING TO 15 TO 25 MPH WITH GUSTS UP TO 45 MPH IN THE
AFTERNOON.

SUNRISE AND SUNSET
FEBRUARY 25 2017......SUNRISE   637 AM PST   SUNSET   547 PM PST
FEBRUARY 26 2017......SUNRISE   636 AM PST   SUNSET   549 PM PST



USA.gov is the U.S. government's official web portal to all federal, state and local government web resources and services.